ADDS METAR Data INFO
IDs: Format: Raw Decoded Include TAF

Data at: 0931 UTC 17 Oct 2017

KEYE 170853Z AUTO 00000KT 10SM CLR 06/03 A3030 RMK AO2 SLP262 T00610028 53004
KEYE 170753Z AUTO 00000KT 10SM CLR 07/03 A3029 RMK AO2 SLP258 T00670033
KEYE 170653Z AUTO 00000KT 10SM CLR 07/03 A3029 RMK AO2 SLP258 T00670033
KEYE 170553Z AUTO 00000KT 10SM CLR 07/03 A3029 RMK AO2 SLP258 T00720033 10128 20072 58001
KEYE 170453Z AUTO 19003KT 10SM CLR 07/04 A3029 RMK AO2 SLP258 T00720039 401720072
KEYE 170353Z AUTO 20003KT 10SM CLR 08/03 A3030 RMK AO2 SLP261 T00830033
KEYE 170253Z AUTO 20003KT 10SM CLR 08/04 A3029 RMK AO2 SLP260 T00830039 53004
KEYE 170153Z AUTO 00000KT 10SM CLR 09/04 A3029 RMK AO2 SLP258 T00940044
KEYE 170053Z AUTO 00000KT 10SM CLR 10/04 A3029 RMK AO2 SLP258 T01000044
KEYE 162353Z AUTO 23003KT 10SM CLR 13/02 A3028 RMK AO2 SLP255 T01280022 10172 20128 55002
KEYE 162253Z AUTO 00000KT 10SM SCT060 15/02 A3028 RMK AO2 SLP253 T01500017
KEYE 162153Z AUTO 30005KT 10SM BKN060 16/02 A3028 RMK AO2 SLP255 T01560022
KEYE 162053Z AUTO 30006KT 10SM CLR 16/02 A3029 RMK AO2 SLP257 T01610017 56013
KEYE 161953Z AUTO 27005KT 10SM FEW060 16/02 A3029 RMK AO2 SLP259 T01610022
KEYE 161853Z AUTO 10SM CLR 16/02 A3030 RMK AO2 SLP261 T01610017
KEYE 161753Z AUTO 10SM CLR 15/02 A3033 RMK AO2 SLP269 T01500017 10156 20078 58007
KEYE 161653Z AUTO 01005KT 10SM CLR 14/02 A3034 RMK AO2 SLP274 T01390022
KEYE 161553Z AUTO 33007KT 10SM CLR 13/02 A3035 RMK AO2 SLP278 T01280022
KEYE 161453Z AUTO 33007KT 10SM CLR 12/03 A3035 RMK AO2 SLP277 T01170033 51014
KEYE 161353Z AUTO 34007KT 10SM CLR 10/05 A3034 RMK AO2 SLP275 T01000050
KEYE 161253Z AUTO 31008KT 10SM CLR 08/04 A3032 RMK AO2 SLP268 T00830044
KEYE 161153Z AUTO 32008KT 10SM CLR 08/05 A3030 RMK AO2 SLP263 70014 T00830050 10100 20083 51014
KEYE 161053Z AUTO 32008KT 10SM OVC055 09/05 A3029 RMK AO2 SLP259 T00940050
KEYE 160953Z AUTO 33009KT 10SM OVC050 09/05 A3028 RMK AO2 SLP253 T00940050
KEYE 160853Z AUTO 32007KT 10SM OVC055 09/05 A3026 RMK AO2 SLP249 T00940050 53008
KEYE 160753Z AUTO 32011KT 10SM BKN060 09/05 A3025 RMK AO2 SLP245 T00940050
KEYE 160653Z AUTO 31007KT 10SM FEW060 09/06 A3024 RMK AO2 SLP243 T00940056
KEYE 160553Z AUTO 31008KT 10SM FEW060 10/06 A3024 RMK AO2 SLP240 T01000056 10117 20100 51006
KEYE 160453Z AUTO 31009KT 10SM BKN055 11/06 A3023 RMK AO2 SLP238 T01060061 402330106
KEYE 160353Z AUTO 30008KT 10SM BKN055 11/06 A3023 RMK AO2 SLP236 T01110061
KEYE 160253Z AUTO 31007KT 10SM OVC047 12/06 A3022 RMK AO2 SLP232 T01170061 51021
KEYE 160153Z AUTO 31009KT 10SM SCT034 OVC047 12/06 A3020 RMK AO2 SLP226 T01170061
KEYE 160053Z AUTO 31009KT 10SM OVC044 12/06 A3018 RMK AO2 SLP219 T01170056
KEYE 152353Z AUTO 31008KT 10SM OVC040 12/05 A3016 RMK AO2 SLP210 T01170050 10128 20117 51022
KEYE 152253Z AUTO 32015G22KT 10SM OVC034 12/04 A3013 RMK AO2 SLP201 T01220044
KEYE 152153Z AUTO 31014G23KT 10SM OVC031 12/06 A3012 RMK AO2 SLP195 T01220056